Amboy, Washington
Current Conditions -  °F | °C
As of 5:53 PM on Saturday 20 Dec 2014 (Local Time) from KSPB Reporting Station
Light Rain Light Rain  
Wind Chill: 52°   Ceiling: 1400
Heat Index: 52°   Visibility: 7mi
Dew Point: 51°   Wind: 0mph
Humidity: 97%   Direction: NA
Pressure: 29.62"   Gusts: NA
Location:  45.91°N, 122.45°W
Report Text: KSPB 210153Z AUTO 00000KT 7SM -RA BKN014 BKN065 OVC085 11/11 A2962 RMK AO2 SLP029 P0004 T01110106
Loading
Personal Weather Stations






























Interactive Weather Map New forecast layout! Learn more

10-Day Weather Forecast

Advertisements
Track Severe Weather on mobile